Conover, Iowa
Current Conditions -  °F | °C
As of 6:15 PM on Sunday 23 Nov 2014 (Local Time) from KDEH Reporting Station
Haze Haze  
Wind Chill: 46°   Ceiling: 300
Heat Index: 46°   Visibility: 2mi
Dew Point: 46°   Wind: 3mph
Humidity: 100%   Direction: NA
Pressure: 29.3"   Gusts: NA
Location:  43.2097°N, 91.9613°W
Report Text: KDEH 240015Z AUTO VRB03KT 2SM BR OVC003 08/08 A2930 RMK AO2
Loading
Personal Weather Stations






























Interactive Weather Map New forecast layout! Learn more

10-Day Weather Forecast

Advertisements
Track Severe Weather on mobile